createdAt,value
2018-06-09T00:01:38.168Z,99.90
2018-06-09T00:04:07.134Z,99.90
2018-06-09T00:06:36.210Z,99.90
2018-06-09T00:09:07.246Z,99.90
2018-06-09T00:11:36.250Z,99.90
2018-06-09T00:14:05.214Z,99.90
2018-06-09T00:16:34.294Z,99.90
2018-06-09T00:19:03.327Z,99.90
2018-06-09T00:21:32.347Z,99.90
2018-06-09T00:24:01.375Z,99.90
2018-06-09T00:26:30.383Z,99.90
2018-06-09T00:28:59.342Z,99.90
2018-06-09T00:31:28.330Z,99.90
2018-06-09T00:33:57.358Z,99.90
2018-06-09T00:36:26.318Z,99.90
2018-06-09T00:38:55.282Z,99.90
2018-06-09T00:41:24.262Z,99.90
2018-06-09T00:43:53.511Z,99.90
2018-06-09T00:46:22.439Z,99.90
2018-06-09T00:48:51.474Z,99.90
2018-06-09T00:51:20.471Z,99.90
2018-06-09T00:53:49.439Z,99.90
2018-06-09T00:56:29.778Z,99.90
2018-06-09T00:58:58.698Z,99.90
2018-06-09T01:01:27.763Z,99.90
2018-06-09T01:03:56.754Z,99.90
2018-06-09T01:06:25.711Z,99.90
2018-06-09T01:08:54.774Z,99.90
2018-06-09T01:11:23.738Z,99.90
2018-06-09T01:13:52.791Z,99.90
2018-06-09T01:16:21.763Z,99.90
2018-06-09T01:18:50.920Z,99.90
2018-06-09T01:21:19.867Z,99.90
2018-06-09T01:23:48.839Z,99.90
2018-06-09T01:26:17.847Z,99.90
2018-06-09T01:28:48.047Z,99.90
2018-06-09T01:31:16.994Z,99.90
2018-06-09T01:33:45.987Z,99.90
2018-06-09T01:36:14.983Z,99.90
2018-06-09T01:38:43.974Z,99.90
2018-06-09T01:41:12.967Z,99.90
2018-06-09T01:43:42.038Z,99.90
2018-06-09T01:46:11.042Z,99.90
2018-06-09T01:48:40.016Z,99.90
2018-06-09T01:51:09.007Z,99.90
2018-06-09T01:53:38.158Z,99.90
2018-06-09T01:56:07.165Z,99.90
2018-06-09T01:58:36.144Z,99.90
2018-06-09T02:01:05.101Z,99.90
2018-06-09T02:03:34.114Z,99.90
2018-06-09T02:06:03.082Z,99.90
2018-06-09T02:08:32.118Z,99.90
2018-06-09T02:11:01.142Z,99.90
2018-06-09T02:13:30.098Z,99.90
2018-06-09T02:15:59.074Z,99.90
2018-06-09T02:18:28.099Z,99.90
2018-06-09T02:20:57.050Z,99.90
2018-06-09T02:23:26.124Z,99.90
2018-06-09T02:25:55.054Z,99.90
2018-06-09T02:28:24.082Z,99.90
2018-06-09T02:30:53.094Z,99.90
2018-06-09T02:33:22.102Z,99.90
2018-06-09T02:35:51.239Z,99.90
2018-06-09T02:38:20.193Z,99.90
2018-06-09T02:40:49.158Z,99.90
2018-06-09T02:43:18.118Z,99.90
2018-06-09T02:45:47.143Z,99.90
2018-06-09T02:48:16.119Z,99.90
2018-06-09T02:50:45.071Z,99.90
2018-06-09T02:53:14.061Z,99.90
2018-06-09T02:55:43.007Z,99.90
2018-06-09T02:58:12.004Z,99.90
2018-06-09T03:00:40.978Z,99.90
2018-06-09T03:03:09.975Z,99.90
2018-06-09T03:05:38.974Z,99.90
2018-06-09T03:08:08.061Z,99.90
2018-06-09T03:10:37.156Z,99.90
2018-06-09T03:13:06.165Z,99.90
2018-06-09T03:15:35.106Z,99.90
2018-06-09T03:18:04.123Z,99.90
2018-06-09T03:20:33.142Z,99.90
2018-06-09T03:23:02.119Z,99.90
2018-06-09T03:25:31.074Z,99.90
2018-06-09T03:28:00.331Z,99.90
2018-06-09T03:30:29.338Z,99.90
2018-06-09T03:32:58.383Z,99.90
2018-06-09T03:35:27.330Z,99.90
2018-06-09T03:37:56.339Z,99.90
2018-06-09T03:40:25.310Z,99.90
2018-06-09T03:42:54.367Z,99.90
2018-06-09T03:45:23.387Z,99.90
2018-06-09T03:47:52.375Z,99.90
2018-06-09T03:50:21.382Z,99.90
2018-06-09T03:52:50.343Z,99.90
2018-06-09T03:55:19.371Z,99.90
2018-06-09T03:57:48.390Z,99.90
2018-06-09T04:00:17.414Z,99.90
2018-06-09T04:02:46.378Z,99.90
2018-06-09T04:05:15.330Z,99.90
2018-06-09T04:07:44.390Z,99.90
2018-06-09T04:10:13.407Z,99.90
2018-06-09T04:12:42.419Z,99.90
2018-06-09T04:15:11.404Z,99.90
2018-06-09T04:17:40.395Z,99.90
2018-06-09T04:20:09.429Z,99.90
2018-06-09T04:22:38.394Z,99.90
2018-06-09T04:25:07.418Z,99.90
2018-06-09T04:27:36.465Z,99.90
2018-06-09T04:30:05.446Z,99.90
2018-06-09T04:32:34.458Z,99.90
2018-06-09T04:35:03.446Z,99.90
2018-06-09T04:37:32.939Z,99.90
2018-06-09T04:40:01.981Z,99.90
2018-06-09T04:42:31.002Z,99.90
2018-06-09T04:45:00.185Z,99.90
2018-06-09T04:47:29.277Z,99.90
2018-06-09T04:49:58.246Z,99.90
2018-06-09T04:52:27.306Z,99.90
2018-06-09T04:54:56.379Z,99.90
2018-06-09T04:57:25.328Z,99.90
2018-06-09T04:59:54.465Z,99.90
2018-06-09T05:02:23.425Z,99.90
2018-06-09T05:04:52.384Z,99.90
2018-06-09T05:07:21.347Z,99.90
2018-06-09T05:09:50.346Z,99.90
2018-06-09T05:12:19.302Z,99.90
2018-06-09T05:14:48.337Z,99.90
2018-06-09T05:17:17.342Z,99.90
2018-06-09T05:19:46.331Z,99.90
2018-06-09T05:22:15.306Z,99.90
2018-06-09T05:24:44.390Z,99.90
2018-06-09T05:27:13.416Z,99.90
2018-06-09T05:29:42.482Z,99.90
2018-06-09T05:32:11.442Z,99.90
2018-06-09T05:34:40.457Z,99.90
2018-06-09T05:37:09.600Z,99.90
2018-06-09T05:39:38.610Z,99.90
2018-06-09T05:42:07.616Z,99.90
2018-06-09T05:44:36.645Z,99.90
2018-06-09T05:47:05.590Z,99.90
2018-06-09T05:49:34.618Z,99.90
2018-06-09T05:52:03.588Z,99.90
2018-06-09T05:54:32.575Z,99.90
2018-06-09T05:57:01.572Z,99.90
2018-06-09T05:59:30.540Z,99.90
2018-06-09T06:01:59.847Z,99.90
2018-06-09T06:04:28.879Z,99.90
2018-06-09T06:06:57.959Z,99.90
2018-06-09T06:09:27.072Z,99.90
2018-06-09T06:11:56.057Z,99.90
2018-06-09T06:14:25.055Z,99.90
2018-06-09T06:16:54.363Z,99.90
2018-06-09T06:19:23.474Z,99.90
2018-06-09T06:21:52.596Z,99.90
2018-06-09T06:24:21.522Z,99.90
2018-06-09T06:26:50.651Z,99.90
2018-06-09T06:29:19.626Z,99.90
2018-06-09T06:31:48.734Z,99.90
2018-06-09T06:34:18.026Z,99.90
2018-06-09T06:36:47.467Z,99.90
2018-06-09T06:39:16.886Z,99.90
2018-06-09T06:41:46.106Z,99.90
2018-06-09T06:44:15.398Z,99.90
2018-06-09T06:46:44.627Z,99.90
2018-06-09T06:49:13.746Z,99.90
2018-06-09T06:51:42.714Z,99.90
2018-06-09T06:54:11.662Z,99.90
2018-06-09T06:56:40.754Z,99.90
2018-06-09T06:59:09.694Z,99.90
2018-06-09T07:01:38.678Z,99.90
2018-06-09T07:04:07.636Z,99.90
2018-06-09T07:06:36.631Z,99.90
2018-06-09T07:09:07.629Z,99.90
2018-06-09T07:11:36.903Z,99.90
2018-06-09T07:14:05.955Z,99.90
2018-06-09T07:16:34.982Z,99.90
2018-06-09T07:19:03.959Z,99.90
2018-06-09T07:21:32.964Z,99.90
2018-06-09T07:24:02.003Z,99.90
2018-06-09T07:26:30.967Z,99.90
2018-06-09T07:28:59.995Z,99.90
2018-06-09T07:31:28.939Z,98.20
2018-06-09T07:33:57.936Z,96.50
2018-06-09T07:36:26.914Z,95.90
2018-06-09T07:38:56.328Z,96.40
2018-06-09T07:41:25.315Z,95.90
2018-06-09T07:43:54.814Z,95.40
2018-06-09T07:46:24.230Z,94.80
2018-06-09T07:48:53.487Z,95.40
2018-06-09T07:51:22.946Z,95.10
2018-06-09T07:53:52.600Z,95.20
2018-06-09T07:56:21.594Z,94.70
2018-06-09T07:58:50.626Z,93.40
2018-06-09T08:01:19.626Z,93.40
2018-06-09T08:03:48.609Z,97.70
2018-06-09T08:06:17.561Z,98.10
2018-06-09T08:08:46.499Z,95.90
2018-06-09T08:11:15.471Z,93.90
2018-06-09T08:16:13.210Z,93.40
2018-06-09T08:18:42.189Z,92.40
2018-06-09T08:21:11.191Z,92.60
2018-06-09T08:23:40.228Z,92.20
2018-06-09T08:26:09.266Z,92.30
2018-06-09T08:28:38.277Z,92.20
2018-06-09T08:31:07.271Z,91.90
2018-06-09T08:33:36.258Z,91.50
2018-06-09T08:36:05.280Z,92.20
2018-06-09T08:38:34.206Z,91.20
2018-06-09T08:41:03.162Z,91.30
2018-06-09T08:43:32.142Z,91.30
2018-06-09T08:46:01.103Z,91.20
2018-06-09T08:48:30.063Z,90.00
2018-06-09T08:50:59.075Z,89.50
2018-06-09T08:53:28.031Z,88.70
2018-06-09T08:55:57.010Z,87.50
2018-06-09T08:58:25.999Z,88.60
2018-06-09T09:00:55.002Z,88.50
2018-06-09T09:03:24.042Z,89.00
2018-06-09T09:05:53.346Z,88.80
2018-06-09T09:08:22.344Z,91.30
2018-06-09T09:10:51.301Z,91.60
2018-06-09T09:13:20.387Z,91.80
2018-06-09T09:15:49.294Z,93.90
2018-06-09T09:18:18.310Z,93.10
2018-06-09T09:20:47.259Z,94.10
2018-06-09T09:23:16.295Z,94.70
2018-06-09T09:25:45.304Z,95.10
2018-06-09T09:28:14.337Z,95.40
2018-06-09T09:30:43.331Z,96.00
2018-06-09T09:33:12.323Z,96.10
2018-06-09T09:35:41.306Z,96.40
2018-06-09T09:38:10.310Z,96.50
2018-06-09T09:40:39.266Z,96.30
2018-06-09T09:43:08.330Z,96.90
2018-06-09T09:45:37.215Z,96.80
2018-06-09T09:48:06.196Z,96.70
2018-06-09T09:50:35.330Z,96.30
2018-06-09T09:53:04.393Z,96.60
2018-06-09T09:55:33.331Z,96.40
2018-06-09T09:58:02.942Z,95.90
2018-06-09T10:00:38.693Z,96.30
2018-06-09T10:03:07.777Z,96.00
2018-06-09T10:08:05.530Z,97.50
2018-06-09T10:10:34.594Z,97.40
2018-06-09T10:13:03.610Z,97.20
2018-06-09T10:15:32.606Z,97.30
2018-06-09T10:18:01.548Z,98.60
2018-06-09T10:20:30.490Z,99.60
2018-06-09T10:25:28.098Z,99.90
2018-06-09T10:27:57.042Z,99.90
2018-06-09T10:30:26.016Z,99.90
2018-06-09T10:32:55.051Z,99.90
2018-06-09T10:35:24.051Z,99.90
2018-06-09T10:37:54.220Z,99.90
2018-06-09T10:40:23.314Z,99.90
2018-06-09T10:42:52.263Z,99.90
2018-06-09T10:45:21.279Z,99.90
2018-06-09T10:47:50.378Z,99.90
2018-06-09T10:50:19.350Z,99.90
2018-06-09T10:52:48.321Z,99.90
2018-06-09T10:55:17.307Z,99.90
2018-06-09T10:57:46.291Z,99.90
2018-06-09T11:00:15.300Z,99.90
2018-06-09T11:02:44.246Z,99.90
2018-06-09T11:05:13.256Z,99.90
2018-06-09T11:07:42.257Z,99.90
2018-06-09T11:10:11.285Z,99.90
2018-06-09T11:12:40.305Z,99.90
2018-06-09T11:15:09.279Z,99.90
2018-06-09T11:17:38.222Z,99.90
2018-06-09T11:20:07.198Z,99.90
2018-06-09T11:22:36.350Z,99.90
2018-06-09T11:25:05.354Z,99.90
2018-06-09T11:30:03.058Z,99.90
2018-06-09T11:32:32.066Z,99.90
2018-06-09T11:35:01.018Z,99.90
2018-06-09T11:37:30.043Z,99.90
2018-06-09T11:39:59.030Z,99.90
2018-06-09T11:42:27.980Z,99.90
2018-06-09T11:44:56.996Z,99.90
2018-06-09T11:47:25.954Z,99.90
2018-06-09T11:49:55.026Z,99.90
2018-06-09T11:52:23.982Z,99.90
2018-06-09T11:54:52.970Z,99.90
2018-06-09T11:57:22.038Z,99.90
2018-06-09T11:59:50.986Z,99.90
2018-06-09T12:02:20.078Z,99.90
2018-06-09T12:04:49.098Z,99.90
2018-06-09T12:07:18.113Z,99.90
2018-06-09T12:09:47.142Z,99.90
2018-06-09T12:12:16.095Z,99.90
2018-06-09T12:14:45.106Z,99.90
2018-06-09T12:17:14.150Z,99.90
2018-06-09T12:19:43.124Z,99.90
2018-06-09T12:22:12.086Z,99.90
2018-06-09T12:27:09.670Z,99.90
2018-06-09T12:32:07.291Z,99.90
2018-06-09T12:34:36.250Z,99.90
2018-06-09T12:37:05.277Z,99.90
2018-06-09T12:39:34.262Z,99.90
2018-06-09T12:42:03.219Z,99.90
2018-06-09T12:44:32.227Z,99.90
2018-06-09T12:47:01.371Z,99.90
2018-06-09T12:49:30.339Z,99.90
2018-06-09T12:51:59.358Z,99.90
2018-06-09T12:54:28.318Z,99.90
2018-06-09T12:56:57.398Z,99.90
2018-06-09T12:59:26.423Z,99.90
2018-06-09T13:01:55.458Z,99.90
2018-06-09T13:04:24.466Z,99.90
2018-06-09T13:06:53.467Z,99.90
2018-06-09T13:09:22.435Z,99.90
2018-06-09T13:11:51.446Z,99.90
2018-06-09T13:16:49.023Z,99.90
2018-06-09T13:19:17.987Z,99.90
2018-06-09T13:21:47.012Z,99.90
2018-06-09T13:24:15.954Z,99.90
2018-06-09T13:26:44.999Z,99.90
2018-06-09T13:29:14.015Z,99.90
2018-06-09T13:31:43.007Z,99.90
2018-06-09T13:34:12.026Z,99.90
2018-06-09T13:36:40.997Z,99.90
2018-06-09T13:39:09.954Z,99.90
2018-06-09T13:41:39.162Z,99.90
2018-06-09T13:46:36.715Z,99.90
2018-06-09T13:49:05.838Z,99.90
2018-06-09T13:54:03.680Z,99.90
2018-06-09T13:56:32.675Z,99.90
2018-06-09T13:59:01.664Z,99.90
2018-06-09T14:01:30.857Z,99.90
2018-06-09T14:03:59.798Z,99.90
2018-06-09T14:06:28.754Z,99.90
2018-06-09T14:08:57.722Z,99.90
2018-06-09T14:11:26.684Z,99.90
2018-06-09T14:13:55.702Z,99.90
2018-06-09T14:16:24.714Z,99.90
2018-06-09T14:18:53.714Z,99.90
2018-06-09T14:21:22.718Z,99.90
2018-06-09T14:23:51.730Z,99.90
2018-06-09T14:26:20.682Z,99.90
2018-06-09T14:28:49.675Z,99.90
2018-06-09T14:31:18.715Z,99.90
2018-06-09T14:33:47.738Z,99.90
2018-06-09T14:36:16.702Z,99.90
2018-06-09T14:38:45.886Z,99.90
2018-06-09T14:41:14.822Z,99.90
2018-06-09T14:43:43.814Z,99.90
2018-06-09T14:46:12.814Z,99.90
2018-06-09T14:48:41.771Z,99.90
2018-06-09T14:51:10.759Z,99.90
2018-06-09T14:53:39.959Z,99.90
2018-06-09T14:56:08.902Z,99.90
2018-06-09T14:58:37.882Z,99.90
2018-06-09T15:01:06.875Z,99.90
2018-06-09T15:03:35.850Z,99.90
2018-06-09T15:06:04.862Z,99.90
2018-06-09T15:08:33.826Z,99.90
2018-06-09T15:11:02.843Z,99.90
2018-06-09T15:13:31.833Z,99.90
2018-06-09T15:16:00.843Z,99.90
2018-06-09T15:18:29.983Z,99.90
2018-06-09T15:20:59.042Z,99.90
2018-06-09T15:23:27.998Z,99.90
2018-06-09T15:25:57.016Z,99.90
2018-06-09T15:28:26.031Z,99.90
2018-06-09T15:30:55.099Z,99.90
2018-06-09T15:33:24.059Z,99.90
2018-06-09T15:35:53.010Z,99.90
2018-06-09T15:38:21.971Z,99.90
2018-06-09T15:40:50.997Z,99.90
2018-06-09T15:43:19.998Z,99.90
2018-06-09T15:45:48.967Z,99.90
2018-06-09T15:48:17.940Z,99.90
2018-06-09T15:50:46.949Z,99.90
2018-06-09T15:53:15.919Z,99.90
2018-06-09T15:55:44.902Z,99.90
2018-06-09T16:00:42.499Z,99.90
2018-06-09T16:03:11.496Z,99.90
2018-06-09T16:05:40.473Z,99.90
2018-06-09T16:08:09.442Z,99.90
2018-06-09T16:10:38.427Z,99.90
2018-06-09T16:13:07.383Z,99.90
2018-06-09T16:15:36.386Z,99.90
2018-06-09T16:18:05.439Z,99.90
2018-06-09T16:20:34.416Z,99.90
2018-06-09T16:23:03.402Z,99.90
2018-06-09T16:25:32.411Z,99.90
2018-06-09T16:28:01.326Z,99.90
2018-06-09T16:30:30.311Z,99.90
2018-06-09T16:32:59.427Z,99.90
2018-06-09T16:35:28.375Z,99.90
2018-06-09T16:37:57.420Z,99.90
2018-06-09T16:40:26.410Z,99.90
2018-06-09T16:42:55.367Z,99.90
2018-06-09T16:45:24.338Z,99.90
2018-06-09T16:47:53.354Z,99.90
2018-06-09T16:50:22.402Z,99.90
2018-06-09T16:52:51.372Z,99.90
2018-06-09T16:55:20.402Z,99.90
2018-06-09T16:57:49.474Z,99.90
2018-06-09T17:00:18.566Z,99.90
2018-06-09T17:02:47.546Z,99.90
2018-06-09T17:05:16.511Z,99.90
2018-06-09T17:07:45.498Z,99.90
2018-06-09T17:10:14.627Z,99.90
2018-06-09T17:12:43.694Z,99.90
2018-06-09T17:15:13.608Z,99.90
2018-06-09T17:17:42.607Z,99.90
2018-06-09T17:20:11.557Z,99.90
2018-06-09T17:22:40.621Z,99.90
2018-06-09T17:25:09.593Z,99.90
2018-06-09T17:27:38.538Z,99.90
2018-06-09T17:30:07.531Z,99.90
2018-06-09T17:32:36.562Z,99.90
2018-06-09T17:35:05.555Z,99.90
2018-06-09T17:37:34.527Z,99.90
2018-06-09T17:40:03.558Z,99.90
2018-06-09T17:42:32.543Z,99.90
2018-06-09T17:45:01.584Z,99.90
2018-06-09T17:47:30.522Z,99.90
2018-06-09T17:49:59.579Z,99.90
2018-06-09T17:52:28.511Z,99.90
2018-06-09T17:54:57.578Z,99.90
2018-06-09T17:57:26.590Z,99.90
2018-06-09T17:59:55.683Z,99.90
2018-06-09T18:02:24.849Z,99.90
2018-06-09T18:04:53.984Z,99.90
2018-06-09T18:07:23.018Z,99.90
2018-06-09T18:09:52.066Z,99.90
2018-06-09T18:12:21.444Z,99.90
2018-06-09T18:14:50.479Z,99.90
2018-06-09T18:17:19.578Z,99.90
2018-06-09T18:19:48.835Z,99.90
2018-06-09T18:22:19.575Z,99.90
2018-06-09T18:24:51.566Z,99.90
2018-06-09T18:27:21.087Z,99.90
2018-06-09T18:29:50.094Z,99.90
2018-06-09T18:32:19.087Z,99.90
2018-06-09T18:34:48.098Z,99.90
2018-06-09T18:37:17.102Z,99.90
2018-06-09T18:39:46.538Z,99.90
2018-06-09T18:42:15.643Z,99.90
2018-06-09T18:44:44.687Z,99.90
2018-06-09T18:47:13.945Z,99.90
2018-06-09T18:49:43.025Z,99.90
2018-06-09T18:52:12.078Z,99.90
2018-06-09T18:54:41.101Z,99.90
2018-06-09T18:57:10.043Z,99.90
2018-06-09T18:59:39.064Z,99.90
2018-06-09T19:02:08.106Z,99.90
2018-06-09T19:04:37.650Z,99.90
2018-06-09T19:07:06.643Z,99.90
2018-06-09T19:09:35.671Z,99.90
2018-06-09T19:12:04.598Z,99.90
2018-06-09T19:14:33.639Z,99.90
2018-06-09T19:17:02.909Z,99.90
2018-06-09T19:19:31.912Z,99.90
2018-06-09T19:22:00.896Z,99.90
2018-06-09T19:24:30.484Z,99.90
2018-06-09T19:27:00.012Z,99.90
2018-06-09T19:29:29.218Z,99.90
2018-06-09T19:31:58.280Z,99.90
2018-06-09T19:34:27.345Z,99.90
2018-06-09T19:36:56.571Z,99.90
2018-06-09T19:39:25.808Z,99.90
2018-06-09T19:41:55.155Z,99.90
2018-06-09T19:44:24.295Z,99.90
2018-06-09T19:46:53.574Z,99.90
2018-06-09T19:49:23.151Z,99.90
2018-06-09T19:51:52.301Z,99.90
2018-06-09T19:54:21.410Z,99.90
2018-06-09T19:56:50.573Z,99.90
2018-06-09T19:59:19.525Z,99.90
2018-06-09T20:01:48.746Z,99.90
2018-06-09T20:04:17.812Z,99.90
2018-06-09T20:06:46.776Z,99.90
2018-06-09T20:09:16.015Z,99.90
2018-06-09T20:11:47.430Z,99.90
2018-06-09T20:14:16.598Z,99.90
2018-06-09T20:16:46.236Z,99.90
2018-06-09T20:19:15.751Z,99.90
2018-06-09T20:21:46.373Z,99.90
2018-06-09T20:24:16.431Z,99.90
2018-06-09T20:26:45.650Z,99.90
2018-06-09T20:29:14.794Z,99.90
2018-06-09T20:31:44.225Z,99.90
2018-06-09T20:34:13.183Z,99.90
2018-06-09T20:36:42.224Z,99.90
2018-06-09T20:39:11.183Z,99.90
2018-06-09T20:41:40.185Z,99.90
2018-06-09T20:44:09.379Z,99.90
2018-06-09T20:46:38.550Z,99.90
2018-06-09T20:49:07.611Z,99.90
2018-06-09T20:51:36.838Z,99.90
2018-06-09T20:54:05.988Z,99.90
2018-06-09T20:56:34.994Z,99.90
2018-06-09T20:59:03.958Z,99.90
2018-06-09T21:01:32.970Z,99.90
2018-06-09T21:04:01.984Z,99.90
2018-06-09T21:06:31.014Z,99.90
2018-06-09T21:08:59.998Z,99.90
2018-06-09T21:11:29.007Z,99.90
2018-06-09T21:13:58.302Z,99.90
2018-06-09T21:16:27.351Z,99.90
2018-06-09T21:18:56.422Z,99.90
2018-06-09T21:21:25.825Z,99.90
2018-06-09T21:23:55.156Z,99.90
2018-06-09T21:26:24.135Z,99.90
2018-06-09T21:28:55.171Z,99.90
2018-06-09T21:31:29.554Z,99.90
2018-06-09T21:34:09.958Z,99.90
2018-06-09T21:36:44.370Z,99.90
2018-06-09T21:39:15.346Z,99.90
2018-06-09T21:41:47.437Z,99.90
2018-06-09T21:44:21.836Z,99.90
2018-06-09T21:46:50.873Z,99.90
2018-06-09T21:49:19.926Z,99.90
2018-06-09T21:51:48.971Z,99.90
2018-06-09T21:54:18.127Z,99.90
2018-06-09T21:56:47.143Z,99.90
2018-06-09T21:59:16.123Z,99.90
2018-06-09T22:01:45.075Z,99.90
2018-06-09T22:04:14.145Z,99.90
2018-06-09T22:06:43.255Z,99.90
2018-06-09T22:09:12.523Z,99.90
2018-06-09T22:11:41.658Z,99.90
2018-06-09T22:14:11.562Z,99.90
2018-06-09T22:16:40.735Z,99.90
2018-06-09T22:19:10.246Z,99.90
2018-06-09T22:21:39.262Z,99.90
2018-06-09T22:24:08.378Z,99.90
2018-06-09T22:26:37.572Z,99.90
2018-06-09T22:29:06.610Z,99.90
2018-06-09T22:31:35.624Z,99.90
2018-06-09T22:34:04.554Z,99.90
2018-06-09T22:36:33.563Z,99.90
2018-06-09T22:39:02.552Z,99.90
2018-06-09T22:41:31.638Z,99.90
2018-06-09T22:44:00.749Z,99.90
2018-06-09T22:46:29.700Z,99.90
2018-06-09T22:48:58.651Z,99.90
2018-06-09T22:51:27.617Z,99.90
2018-06-09T22:53:56.791Z,99.90
2018-06-09T22:56:25.860Z,99.90
2018-06-09T22:58:54.913Z,99.90
2018-06-09T23:01:23.841Z,99.90
2018-06-09T23:03:52.831Z,99.90
2018-06-09T23:06:21.814Z,99.90
2018-06-09T23:08:50.767Z,99.90
2018-06-09T23:11:19.773Z,99.90
2018-06-09T23:13:48.794Z,99.90
2018-06-09T23:16:17.790Z,99.90
2018-06-09T23:18:46.782Z,99.90
2018-06-09T23:21:15.766Z,99.90
2018-06-09T23:23:44.736Z,99.90
2018-06-09T23:26:13.707Z,99.90
2018-06-09T23:28:42.679Z,99.90
2018-06-09T23:31:11.843Z,99.90
2018-06-09T23:33:40.842Z,99.90
2018-06-09T23:36:09.873Z,99.90
2018-06-09T23:38:38.887Z,99.90
2018-06-09T23:41:07.851Z,99.90
2018-06-09T23:43:36.869Z,99.90
2018-06-09T23:46:05.816Z,99.90
2018-06-09T23:48:34.811Z,99.90
2018-06-09T23:51:03.971Z,99.90
2018-06-09T23:53:32.942Z,99.90
2018-06-09T23:56:01.909Z,99.90
2018-06-09T23:58:30.895Z,99.90
